createdAt,value
2022-08-30T00:06:06.496Z,8.30
2022-08-30T00:16:10.647Z,7.32
2022-08-30T00:26:15.153Z,8.15
2022-08-30T00:36:18.342Z,7.68
2022-08-30T00:46:22.813Z,8.00
2022-08-30T00:56:27.093Z,8.30
2022-08-30T01:06:32.926Z,7.93
2022-08-30T01:16:36.916Z,7.80
2022-08-30T01:26:41.498Z,8.65
2022-08-30T01:36:47.050Z,8.30
2022-08-30T01:46:52.064Z,8.63
2022-08-30T01:56:55.122Z,9.25
2022-08-30T02:06:59.607Z,8.75
2022-08-30T02:17:02.775Z,8.82
2022-08-30T02:27:07.582Z,9.30
2022-08-30T02:37:10.698Z,9.25
2022-08-30T02:47:15.134Z,8.70
2022-08-30T02:57:20.462Z,8.73
2022-08-30T03:07:25.005Z,9.23
2022-08-30T03:17:28.133Z,9.40
2022-08-30T03:27:32.945Z,9.77
2022-08-30T03:37:36.732Z,8.38
2022-08-30T03:47:41.280Z,8.40
2022-08-30T03:57:45.107Z,9.00
2022-08-30T04:07:49.591Z,7.93
2022-08-30T04:17:53.798Z,9.20
2022-08-30T04:27:58.189Z,8.43
2022-08-30T04:38:01.261Z,8.18
2022-08-30T04:48:05.959Z,7.80
2022-08-30T04:58:09.069Z,8.63
2022-08-30T05:08:16.131Z,8.13
2022-08-30T05:18:19.177Z,8.30
2022-08-30T05:28:26.243Z,9.48
2022-08-30T05:38:29.464Z,7.80
2022-08-30T05:48:34.371Z,8.88
2022-08-30T05:58:38.368Z,8.52
2022-08-30T06:08:45.592Z,9.65
2022-08-30T06:18:49.407Z,9.23
2022-08-30T06:28:53.895Z,9.05
2022-08-30T06:38:58.981Z,7.00
2022-08-30T06:49:04.596Z,7.40
2022-08-30T06:59:07.664Z,7.78
2022-08-30T07:09:12.168Z,6.63
2022-08-30T07:19:19.415Z,5.95
2022-08-30T07:29:25.632Z,6.35
2022-08-30T07:39:28.684Z,6.97
2022-08-30T07:49:37.547Z,5.28
2022-08-30T07:59:40.573Z,5.60
2022-08-30T08:09:45.028Z,6.60
2022-08-30T08:19:48.102Z,6.22
2022-08-30T08:29:52.524Z,5.82
2022-08-30T08:39:55.728Z,5.50
2022-08-30T08:50:04.009Z,6.00
2022-08-30T09:00:08.525Z,7.05
2022-08-30T09:10:12.986Z,7.07
2022-08-30T09:20:26.438Z,6.32
2022-08-30T09:30:31.401Z,5.78
2022-08-30T09:40:38.772Z,6.00
2022-08-30T09:50:45.466Z,5.80
2022-08-30T10:00:53.219Z,5.72
2022-08-30T10:11:02.067Z,6.13
2022-08-30T10:21:15.514Z,6.20
2022-08-30T10:31:29.426Z,5.90
2022-08-30T10:41:38.765Z,5.45
2022-08-30T10:51:48.693Z,5.60
2022-08-30T11:02:16.084Z,5.95
2022-08-30T11:12:33.601Z,6.40
2022-08-30T11:22:39.274Z,5.15
2022-08-30T11:33:08.892Z,4.90
2022-08-30T11:43:44.938Z,5.45
2022-08-30T11:53:58.259Z,6.03
2022-08-30T12:04:06.721Z,5.78
2022-08-30T12:14:49.092Z,6.07
2022-08-30T12:24:54.653Z,5.38
2022-08-30T12:35:00.491Z,5.90
2022-08-30T12:45:08.868Z,4.28
2022-08-30T12:55:19.509Z,6.03
2022-08-30T13:05:32.211Z,6.20
2022-08-30T13:15:43.475Z,6.85
2022-08-30T13:25:46.613Z,6.18
2022-08-30T13:35:51.014Z,5.90
2022-08-30T13:45:54.085Z,6.43
2022-08-30T13:55:58.666Z,5.65
2022-08-30T14:06:29.248Z,7.00
2022-08-30T14:16:27.032Z,6.93
2022-08-30T14:26:33.914Z,5.97
2022-08-30T14:36:39.976Z,6.10
2022-08-30T14:46:43.486Z,5.35
2022-08-30T14:56:48.522Z,5.80
2022-08-30T15:06:52.437Z,5.82
2022-08-30T15:16:58.263Z,5.45
2022-08-30T15:27:02.104Z,5.18
2022-08-30T15:37:07.841Z,4.50
2022-08-30T15:47:11.020Z,4.50
2022-08-30T15:57:15.447Z,3.55
2022-08-30T16:07:19.081Z,4.00
2022-08-30T16:17:24.033Z,4.10
2022-08-30T16:27:27.171Z,3.80
2022-08-30T16:37:32.329Z,3.30
2022-08-30T16:47:35.390Z,3.13
2022-08-30T16:57:39.962Z,3.03
2022-08-30T17:07:44.825Z,3.17
2022-08-30T17:17:50.106Z,3.28
2022-08-30T17:27:53.265Z,3.20
2022-08-30T17:37:57.734Z,3.67
2022-08-30T17:48:02.698Z,3.90
2022-08-30T17:58:07.096Z,3.90
2022-08-30T18:08:10.850Z,4.00
2022-08-30T18:18:16.971Z,3.65
2022-08-30T18:28:20.095Z,3.90
2022-08-30T18:38:25.763Z,3.83
2022-08-30T18:48:29.894Z,4.22
2022-08-30T18:58:34.658Z,4.03
2022-08-30T19:08:38.613Z,3.90
2022-08-30T19:18:43.170Z,4.05
2022-08-30T19:28:48.172Z,4.13
2022-08-30T19:38:52.540Z,4.63
2022-08-30T19:49:00.923Z,4.38
2022-08-30T19:59:05.452Z,4.70
2022-08-30T20:09:10.483Z,4.78
2022-08-30T20:19:17.022Z,4.80
2022-08-30T20:29:21.620Z,5.00
2022-08-30T20:39:26.302Z,4.57
2022-08-30T20:49:29.367Z,4.75
2022-08-30T20:59:34.282Z,5.07
2022-08-30T21:09:38.131Z,5.47
2022-08-30T21:19:44.155Z,5.30
2022-08-30T21:29:47.313Z,5.03
2022-08-30T21:39:52.187Z,6.22
2022-08-30T21:49:55.331Z,6.30
2022-08-30T21:59:59.781Z,5.50
2022-08-30T22:10:02.858Z,5.00
2022-08-30T22:20:08.551Z,5.13
2022-08-30T22:30:13.055Z,5.45
2022-08-30T22:40:17.595Z,5.38
2022-08-30T22:50:20.924Z,4.95
2022-08-30T23:00:25.753Z,5.13
2022-08-30T23:10:29.163Z,5.45
2022-08-30T23:20:34.195Z,4.88
2022-08-30T23:30:54.549Z,5.70
2022-08-30T23:41:16.427Z,6.57
2022-08-30T23:51:37.100Z,6.25
